createdAt,value
2023-05-13T00:01:24.142Z,6.43
2023-05-13T00:03:54.438Z,6.17
2023-05-13T00:06:24.958Z,5.43
2023-05-13T00:08:55.400Z,6.90
2023-05-13T00:11:25.887Z,6.50
2023-05-13T00:13:57.543Z,6.03
2023-05-13T00:16:30.422Z,6.10
2023-05-13T00:19:01.205Z,6.20
2023-05-13T00:21:32.506Z,6.83
2023-05-13T00:24:03.088Z,6.50
2023-05-13T00:26:33.125Z,6.23
2023-05-13T00:29:03.540Z,6.20
2023-05-13T00:31:36.879Z,6.23
2023-05-13T00:34:07.182Z,6.40
2023-05-13T00:36:37.236Z,6.13
2023-05-13T00:39:08.034Z,8.57
2023-05-13T00:41:38.339Z,8.23
2023-05-13T00:44:08.978Z,6.70
2023-05-13T00:46:41.929Z,6.30
2023-05-13T00:49:12.263Z,6.57
2023-05-13T00:51:43.091Z,7.30
2023-05-13T00:54:13.560Z,6.90
2023-05-13T00:56:43.804Z,6.47
2023-05-13T00:59:13.916Z,6.10
2023-05-13T01:01:55.914Z,6.73
2023-05-13T01:04:36.959Z,6.07
2023-05-13T01:07:15.418Z,6.70
2023-05-13T01:09:59.039Z,6.30
2023-05-13T01:12:38.498Z,6.90
2023-05-13T01:15:13.605Z,7.03
2023-05-13T01:17:56.614Z,6.40
2023-05-13T01:20:27.273Z,6.03
2023-05-13T01:23:04.309Z,6.83
2023-05-13T01:25:34.638Z,7.03
2023-05-13T01:28:05.026Z,7.13
2023-05-13T01:30:36.599Z,6.53
2023-05-13T01:33:09.285Z,6.77
2023-05-13T01:35:39.864Z,6.23
2023-05-13T01:38:16.976Z,6.80
2023-05-13T01:40:51.835Z,6.30
2023-05-13T01:43:22.642Z,8.50
2023-05-13T01:45:52.831Z,6.77
2023-05-13T01:48:24.288Z,7.20
2023-05-13T01:50:55.234Z,6.87
2023-05-13T01:53:29.855Z,6.97
2023-05-13T01:56:01.044Z,7.20
2023-05-13T01:58:31.350Z,6.97
2023-05-13T02:01:02.068Z,6.80
2023-05-13T02:03:32.472Z,6.53
2023-05-13T02:06:03.545Z,7.00
2023-05-13T02:08:36.747Z,7.03
2023-05-13T02:11:07.714Z,6.67
2023-05-13T02:13:38.331Z,6.90
2023-05-13T02:16:08.984Z,6.90
2023-05-13T02:18:39.309Z,6.50
2023-05-13T02:21:12.673Z,7.10
2023-05-13T02:23:45.578Z,6.40
2023-05-13T02:26:15.918Z,6.90
2023-05-13T02:28:46.328Z,7.07
2023-05-13T02:31:17.343Z,6.53
2023-05-13T02:33:47.937Z,7.20
2023-05-13T02:36:19.169Z,7.60
2023-05-13T02:38:52.905Z,7.17
2023-05-13T02:41:23.160Z,6.57
2023-05-13T02:43:53.984Z,6.90
2023-05-13T02:46:24.361Z,6.90
2023-05-13T02:48:57.237Z,7.23
2023-05-13T02:51:27.519Z,6.80
2023-05-13T02:54:00.736Z,7.30
2023-05-13T02:56:32.616Z,6.50
2023-05-13T02:59:03.741Z,6.80
2023-05-13T03:01:34.240Z,6.97
2023-05-13T03:04:04.509Z,6.57
2023-05-13T03:06:37.710Z,7.07
2023-05-13T03:09:10.699Z,7.07
2023-05-13T03:11:41.070Z,7.70
2023-05-13T03:14:11.235Z,6.93
2023-05-13T03:16:41.782Z,7.03
2023-05-13T03:19:12.101Z,7.33
2023-05-13T03:21:42.249Z,7.00
2023-05-13T03:24:18.403Z,7.33
2023-05-13T03:26:48.945Z,6.80
2023-05-13T03:29:19.326Z,7.30
2023-05-13T03:31:49.612Z,7.87
2023-05-13T03:34:19.978Z,7.70
2023-05-13T03:36:50.127Z,7.07
2023-05-13T03:39:22.972Z,7.10
2023-05-13T03:41:53.022Z,6.93
2023-05-13T03:44:23.259Z,7.53
2023-05-13T03:46:53.473Z,7.03
2023-05-13T03:49:23.580Z,6.97
2023-05-13T03:51:53.731Z,7.20
2023-05-13T03:54:26.539Z,7.07
2023-05-13T03:56:56.607Z,7.20
2023-05-13T03:59:26.952Z,7.43
2023-05-13T04:01:57.059Z,7.73
2023-05-13T04:04:27.280Z,7.63
2023-05-13T04:06:57.411Z,6.87
2023-05-13T04:09:30.149Z,6.63
2023-05-13T04:12:00.202Z,7.50
2023-05-13T04:14:30.392Z,7.57
2023-05-13T04:17:00.546Z,7.20
2023-05-13T04:19:30.612Z,7.33
2023-05-13T04:22:00.679Z,8.63
2023-05-13T04:24:33.390Z,7.50
2023-05-13T04:27:06.390Z,7.73
2023-05-13T04:29:36.558Z,7.57
2023-05-13T04:32:07.150Z,7.97
2023-05-13T04:34:37.657Z,7.17
2023-05-13T04:37:08.397Z,7.30
2023-05-13T04:39:41.783Z,6.78
2023-05-13T04:42:12.282Z,7.18
2023-05-13T04:44:42.368Z,7.40
2023-05-13T04:47:12.500Z,7.38
2023-05-13T04:49:42.660Z,6.95
2023-05-13T04:52:14.480Z,7.20
2023-05-13T04:54:47.372Z,7.00
2023-05-13T04:57:17.443Z,7.25
2023-05-13T04:59:47.521Z,6.75
2023-05-13T05:02:19.178Z,7.15
2023-05-13T05:04:49.569Z,6.93
2023-05-13T05:07:19.894Z,6.88
2023-05-13T05:09:53.387Z,6.80
2023-05-13T05:12:23.411Z,7.50
2023-05-13T05:14:53.771Z,6.47
2023-05-13T05:17:24.462Z,6.90
2023-05-13T05:19:55.583Z,6.32
2023-05-13T05:22:25.710Z,6.63
2023-05-13T05:24:58.384Z,6.60
2023-05-13T05:27:28.760Z,6.80
2023-05-13T05:29:59.176Z,6.25
2023-05-13T05:32:29.832Z,6.32
2023-05-13T05:35:02.290Z,6.05
2023-05-13T05:37:47.632Z,5.72
2023-05-13T05:40:21.862Z,6.03
2023-05-13T05:42:53.426Z,6.00
2023-05-13T05:45:23.797Z,5.85
2023-05-13T05:47:54.293Z,5.80
2023-05-13T05:50:24.983Z,6.10
2023-05-13T05:52:55.418Z,5.57
2023-05-13T05:55:28.674Z,5.65
2023-05-13T05:58:03.973Z,6.18
2023-05-13T06:00:34.142Z,5.93
2023-05-13T06:03:04.463Z,6.03
2023-05-13T06:05:35.475Z,5.40
2023-05-13T06:08:05.919Z,6.05
2023-05-13T06:10:38.756Z,6.03
2023-05-13T06:13:09.010Z,5.63
2023-05-13T06:15:39.554Z,5.28
2023-05-13T06:18:09.857Z,5.45
2023-05-13T06:20:40.111Z,5.35
2023-05-13T06:23:10.684Z,15.63
2023-05-13T06:25:43.584Z,6.05
2023-05-13T06:28:13.984Z,5.70
2023-05-13T06:30:47.935Z,5.75
2023-05-13T06:33:18.062Z,5.28
2023-05-13T06:35:49.822Z,5.25
2023-05-13T06:38:21.947Z,5.38
2023-05-13T06:40:56.575Z,5.63
2023-05-13T06:43:36.445Z,5.75
2023-05-13T06:46:24.450Z,6.35
2023-05-13T06:48:56.906Z,5.22
2023-05-13T06:51:28.688Z,5.28
2023-05-13T06:53:59.250Z,5.30
2023-05-13T06:56:33.075Z,5.55
2023-05-13T06:59:03.374Z,5.20
2023-05-13T07:01:33.805Z,5.03
2023-05-13T07:04:04.182Z,4.78
2023-05-13T07:06:34.345Z,4.97
2023-05-13T07:09:08.138Z,5.22
2023-05-13T07:11:41.775Z,9.93
2023-05-13T07:14:11.973Z,5.93
2023-05-13T07:16:42.539Z,4.68
2023-05-13T07:19:13.032Z,5.35
2023-05-13T07:21:43.521Z,4.45
2023-05-13T07:24:19.923Z,4.20
2023-05-13T07:26:52.941Z,4.43
2023-05-13T07:29:23.719Z,3.83
2023-05-13T07:31:54.823Z,4.30
2023-05-13T07:34:25.125Z,3.92
2023-05-13T07:36:57.352Z,4.45
2023-05-13T07:39:30.357Z,4.63
2023-05-13T07:42:03.125Z,4.25
2023-05-13T07:44:36.081Z,4.07
2023-05-13T07:47:09.754Z,4.18
2023-05-13T07:49:40.164Z,3.63
2023-05-13T07:52:10.619Z,3.88
2023-05-13T07:54:40.737Z,3.90
2023-05-13T07:57:13.464Z,4.50
2023-05-13T07:59:44.925Z,5.40
2023-05-13T08:02:15.458Z,3.80
2023-05-13T08:04:45.669Z,4.60
2023-05-13T08:07:16.065Z,3.97
2023-05-13T08:09:46.432Z,3.95
2023-05-13T08:12:19.158Z,3.40
2023-05-13T08:14:49.539Z,3.75
2023-05-13T08:17:20.107Z,4.30
2023-05-13T08:19:50.449Z,3.58
2023-05-13T08:22:20.679Z,3.63
2023-05-13T08:24:51.103Z,4.13
2023-05-13T08:27:24.045Z,4.15
2023-05-13T08:29:54.338Z,3.70
2023-05-13T08:32:24.576Z,4.00
2023-05-13T08:34:56.987Z,3.55
2023-05-13T08:37:27.068Z,3.85
2023-05-13T08:40:00.724Z,3.78
2023-05-13T08:42:36.130Z,4.05
2023-05-13T08:45:08.667Z,3.55
2023-05-13T08:47:51.363Z,3.92
2023-05-13T08:50:23.489Z,3.80
2023-05-13T08:52:58.816Z,3.45
2023-05-13T08:55:30.176Z,3.83
2023-05-13T08:58:03.019Z,4.13
2023-05-13T09:00:34.436Z,4.70
2023-05-13T09:03:04.703Z,4.93
2023-05-13T09:05:38.364Z,4.18
2023-05-13T09:08:12.601Z,3.63
2023-05-13T09:10:42.992Z,3.63
2023-05-13T09:13:18.811Z,3.70
2023-05-13T09:15:49.031Z,4.35
2023-05-13T09:18:19.577Z,3.90
2023-05-13T09:20:49.874Z,3.83
2023-05-13T09:23:21.345Z,3.15
2023-05-13T09:25:51.480Z,4.00
2023-05-13T09:28:24.174Z,4.35
2023-05-13T09:30:58.597Z,3.90
2023-05-13T09:33:33.280Z,3.92
2023-05-13T09:36:06.876Z,4.03
2023-05-13T09:38:39.309Z,3.47
2023-05-13T09:41:09.405Z,4.20
2023-05-13T09:43:42.601Z,3.45
2023-05-13T09:46:15.885Z,3.30
2023-05-13T09:48:46.560Z,2.88
2023-05-13T09:51:18.680Z,2.88
2023-05-13T09:53:51.858Z,3.47
2023-05-13T09:56:24.158Z,3.33
2023-05-13T09:58:57.197Z,3.45
2023-05-13T10:01:29.985Z,3.67
2023-05-13T10:04:01.762Z,3.30
2023-05-13T10:06:33.661Z,4.20
2023-05-13T10:09:09.555Z,3.50
2023-05-13T10:11:39.942Z,3.95
2023-05-13T10:14:13.213Z,3.60
2023-05-13T10:16:43.818Z,3.33
2023-05-13T10:19:15.615Z,3.40
2023-05-13T10:21:49.127Z,3.25
2023-05-13T10:24:19.444Z,3.30
2023-05-13T10:26:51.109Z,3.80
2023-05-13T10:29:26.104Z,3.20
2023-05-13T10:31:57.203Z,3.55
2023-05-13T10:34:28.507Z,3.13
2023-05-13T10:37:25.701Z,3.10
2023-05-13T10:40:18.823Z,2.78
2023-05-13T10:42:58.330Z,2.55
2023-05-13T10:45:36.294Z,3.10
2023-05-13T10:48:09.421Z,3.25
2023-05-13T10:50:41.531Z,3.25
2023-05-13T10:53:13.131Z,2.60
2023-05-13T10:55:46.881Z,3.88
2023-05-13T10:58:17.996Z,4.20
2023-05-13T11:00:51.425Z,3.10
2023-05-13T11:03:32.983Z,2.72
2023-05-13T11:06:16.859Z,2.50
2023-05-13T11:08:48.606Z,2.75
2023-05-13T11:11:30.395Z,2.80
2023-05-13T11:14:10.483Z,3.08
2023-05-13T11:16:48.967Z,2.58
2023-05-13T11:19:24.506Z,2.97
2023-05-13T11:21:56.533Z,3.22
2023-05-13T11:24:27.804Z,3.15
2023-05-13T11:26:59.350Z,2.92
2023-05-13T11:29:34.472Z,2.60
2023-05-13T11:32:14.597Z,3.22
2023-05-13T11:34:53.798Z,2.67
2023-05-13T11:37:24.567Z,2.90
2023-05-13T11:39:54.618Z,3.00
2023-05-13T11:42:24.826Z,3.35
2023-05-13T11:44:56.199Z,2.80
2023-05-13T11:47:31.361Z,3.38
2023-05-13T11:50:01.617Z,2.63
2023-05-13T11:52:31.720Z,2.63
2023-05-13T11:55:01.942Z,2.63
2023-05-13T11:57:35.283Z,2.63
2023-05-13T12:00:07.614Z,3.25
2023-05-13T12:02:41.660Z,2.75
2023-05-13T12:05:15.318Z,2.92
2023-05-13T12:07:46.386Z,3.15
2023-05-13T12:10:19.453Z,3.13
2023-05-13T12:12:49.794Z,2.95
2023-05-13T12:15:21.682Z,2.97
2023-05-13T12:17:54.863Z,3.22
2023-05-13T12:20:26.164Z,2.67
2023-05-13T12:22:59.438Z,3.33
2023-05-13T12:25:47.837Z,3.03
2023-05-13T12:28:19.609Z,2.95
2023-05-13T12:30:54.735Z,3.17
2023-05-13T12:33:28.876Z,2.88
2023-05-13T12:36:20.110Z,3.38
2023-05-13T12:39:01.423Z,3.00
2023-05-13T12:41:33.384Z,3.10
2023-05-13T12:44:04.955Z,3.30
2023-05-13T12:46:35.524Z,3.35
2023-05-13T12:49:08.783Z,3.25
2023-05-13T12:51:38.830Z,3.38
2023-05-13T12:54:09.269Z,2.90
2023-05-13T12:56:40.296Z,3.00
2023-05-13T12:59:14.622Z,3.30
2023-05-13T13:01:45.103Z,3.38
2023-05-13T13:04:19.279Z,3.20
2023-05-13T13:06:49.639Z,3.28
2023-05-13T13:09:19.881Z,3.00
2023-05-13T13:11:49.944Z,3.20
2023-05-13T13:14:20.003Z,3.30
2023-05-13T13:16:53.150Z,3.35
2023-05-13T13:19:25.967Z,3.20
2023-05-13T13:21:56.195Z,2.65
2023-05-13T13:24:26.383Z,2.75
2023-05-13T13:26:56.661Z,3.30
2023-05-13T13:29:26.809Z,2.90
2023-05-13T13:31:57.041Z,3.08
2023-05-13T13:34:29.833Z,3.72
2023-05-13T13:36:59.995Z,3.17
2023-05-13T13:39:30.229Z,2.90
2023-05-13T13:42:00.476Z,3.30
2023-05-13T13:44:30.592Z,3.08
2023-05-13T13:47:00.713Z,3.55
2023-05-13T13:49:33.390Z,3.53
2023-05-13T13:52:03.666Z,3.78
2023-05-13T13:54:33.941Z,3.85
2023-05-13T13:57:04.095Z,3.60
2023-05-13T13:59:34.134Z,3.72
2023-05-13T14:02:04.775Z,3.90
2023-05-13T14:04:37.459Z,4.30
2023-05-13T14:07:07.858Z,3.70
2023-05-13T14:09:38.880Z,3.78
2023-05-13T14:12:09.213Z,3.90
2023-05-13T14:14:39.457Z,3.80
2023-05-13T14:17:10.345Z,3.90
2023-05-13T14:19:44.553Z,3.55
2023-05-13T14:22:14.663Z,4.18
2023-05-13T14:24:44.748Z,3.95
2023-05-13T14:27:14.860Z,3.85
2023-05-13T14:29:44.908Z,3.45
2023-05-13T14:32:15.069Z,3.65
2023-05-13T14:34:47.884Z,3.92
2023-05-13T14:37:18.120Z,3.67
2023-05-13T14:39:50.131Z,3.75
2023-05-13T14:42:21.371Z,4.38
2023-05-13T14:44:51.507Z,3.42
2023-05-13T14:47:21.633Z,3.63
2023-05-13T14:49:54.372Z,3.80
2023-05-13T14:52:24.559Z,3.75
2023-05-13T14:54:54.959Z,3.95
2023-05-13T14:57:25.851Z,4.07
2023-05-13T14:59:56.747Z,3.58
2023-05-13T15:02:31.639Z,3.45
2023-05-13T15:05:04.836Z,3.58
2023-05-13T15:07:35.032Z,3.78
2023-05-13T15:10:05.228Z,3.70
2023-05-13T15:12:35.306Z,3.58
2023-05-13T15:15:05.805Z,3.50
2023-05-13T15:17:39.952Z,3.80
2023-05-13T15:20:14.456Z,4.40
2023-05-13T15:22:44.464Z,4.90
2023-05-13T15:25:14.668Z,4.97
2023-05-13T15:27:44.887Z,4.20
2023-05-13T15:30:15.302Z,4.65
2023-05-13T15:32:45.441Z,4.07
2023-05-13T15:35:19.069Z,4.38
2023-05-13T15:37:49.197Z,4.35
2023-05-13T15:40:19.360Z,4.35
2023-05-13T15:42:49.552Z,5.03
2023-05-13T15:45:19.794Z,4.30
2023-05-13T15:47:50.041Z,5.28
2023-05-13T15:50:23.221Z,4.85
2023-05-13T15:52:54.808Z,4.68
2023-05-13T15:55:25.077Z,5.20
2023-05-13T15:57:56.117Z,5.00
2023-05-13T16:00:26.498Z,4.63
2023-05-13T16:02:56.713Z,4.90
2023-05-13T16:05:38.764Z,4.72
2023-05-13T16:08:08.936Z,4.70
2023-05-13T16:10:39.084Z,4.68
2023-05-13T16:13:09.511Z,5.18
2023-05-13T16:15:39.553Z,5.40
2023-05-13T16:18:09.929Z,5.45
2023-05-13T16:20:42.841Z,6.30
2023-05-13T16:23:15.358Z,5.57
2023-05-13T16:25:45.945Z,5.35
2023-05-13T16:28:16.025Z,5.22
2023-05-13T16:30:46.324Z,4.47
2023-05-13T16:33:18.774Z,5.05
2023-05-13T16:35:51.748Z,5.38
2023-05-13T16:38:21.809Z,5.43
2023-05-13T16:40:52.343Z,5.50
2023-05-13T16:43:22.580Z,5.07
2023-05-13T16:45:52.694Z,5.15
2023-05-13T16:48:22.857Z,4.80
2023-05-13T16:50:56.275Z,4.45
2023-05-13T16:53:26.713Z,5.60
2023-05-13T16:55:57.018Z,5.07
2023-05-13T16:58:27.432Z,4.95
2023-05-13T17:00:59.259Z,5.10
2023-05-13T17:03:29.822Z,5.28
2023-05-13T17:06:03.317Z,5.05
2023-05-13T17:08:33.437Z,4.68
2023-05-13T17:11:03.501Z,4.38
2023-05-13T17:13:33.668Z,4.85
2023-05-13T17:16:03.719Z,4.57
2023-05-13T17:18:36.798Z,4.85
2023-05-13T17:21:14.805Z,4.80
2023-05-13T17:23:44.904Z,4.75
2023-05-13T17:26:23.146Z,5.32
2023-05-13T17:28:53.610Z,4.90
2023-05-13T17:31:23.757Z,4.45
2023-05-13T17:33:53.973Z,5.05
2023-05-13T17:36:26.714Z,5.03
2023-05-13T17:38:56.948Z,5.57
2023-05-13T17:41:27.236Z,4.72
2023-05-13T17:43:57.423Z,5.28
2023-05-13T17:46:35.478Z,5.47
2023-05-13T17:49:05.589Z,4.95
2023-05-13T17:51:36.066Z,4.75
2023-05-13T17:54:06.463Z,4.97
2023-05-13T17:56:39.828Z,5.63
2023-05-13T17:59:10.304Z,6.32
2023-05-13T18:01:43.122Z,5.20
2023-05-13T18:04:13.387Z,5.20
2023-05-13T18:06:43.607Z,5.90
2023-05-13T18:09:16.756Z,5.75
2023-05-13T18:11:47.087Z,5.80
2023-05-13T18:14:20.184Z,5.40
2023-05-13T18:16:53.019Z,6.55
2023-05-13T18:19:23.534Z,6.25
2023-05-13T18:21:55.883Z,6.20
2023-05-13T18:24:26.180Z,6.68
2023-05-13T18:26:57.828Z,6.60
2023-05-13T18:29:33.290Z,6.93
2023-05-13T18:32:06.198Z,6.47
2023-05-13T18:34:36.790Z,6.75
2023-05-13T18:37:10.155Z,6.97
2023-05-13T18:39:40.255Z,6.70
2023-05-13T18:42:10.842Z,6.65
2023-05-13T18:44:41.150Z,6.63
2023-05-13T18:47:14.133Z,11.95
2023-05-13T18:49:47.166Z,9.85
2023-05-13T18:52:17.261Z,8.00
2023-05-13T18:54:47.377Z,8.05
2023-05-13T18:57:18.268Z,7.75
2023-05-13T18:59:48.482Z,7.45
2023-05-13T19:02:22.022Z,7.65
2023-05-13T19:04:52.453Z,8.43
2023-05-13T19:07:22.618Z,8.77
2023-05-13T19:09:55.357Z,8.30
2023-05-13T19:12:28.407Z,9.15
2023-05-13T19:14:58.464Z,8.88
2023-05-13T19:17:34.287Z,8.27
2023-05-13T19:20:04.532Z,8.90
2023-05-13T19:22:34.873Z,8.13
2023-05-13T19:25:11.527Z,8.05
2023-05-13T19:27:42.015Z,8.23
2023-05-13T19:30:13.481Z,10.38
2023-05-13T19:32:46.558Z,10.02
2023-05-13T19:35:19.776Z,8.88
2023-05-13T19:37:50.033Z,8.77
2023-05-13T19:40:20.471Z,9.85
2023-05-13T19:42:53.246Z,9.57
2023-05-13T19:45:24.106Z,11.13
2023-05-13T19:47:56.962Z,10.52
2023-05-13T19:50:27.222Z,10.93
2023-05-13T19:53:00.470Z,10.20
2023-05-13T19:55:30.821Z,11.23
2023-05-13T19:58:03.734Z,10.90
2023-05-13T20:00:34.308Z,10.95
2023-05-13T20:03:07.217Z,11.68
2023-05-13T20:05:37.763Z,11.48
2023-05-13T20:08:08.052Z,12.02
2023-05-13T20:10:38.239Z,11.93
2023-05-13T20:13:08.300Z,12.75
2023-05-13T20:15:38.370Z,31.08
2023-05-13T20:18:11.258Z,13.63
2023-05-13T20:20:41.753Z,12.55
2023-05-13T20:23:13.830Z,12.30
2023-05-13T20:25:44.651Z,12.73
2023-05-13T20:28:14.799Z,12.52
2023-05-13T20:30:45.222Z,13.02
2023-05-13T20:33:18.216Z,12.75
2023-05-13T20:35:48.628Z,13.20
2023-05-13T20:38:18.682Z,13.43
2023-05-13T20:40:48.826Z,12.77
2023-05-13T20:43:19.283Z,12.70
2023-05-13T20:45:49.391Z,13.27
2023-05-13T20:48:22.202Z,13.13
2023-05-13T20:50:52.810Z,13.83
2023-05-13T20:53:22.876Z,14.80
2023-05-13T20:55:52.976Z,14.50
2023-05-13T20:58:23.046Z,14.27
2023-05-13T21:00:53.158Z,14.40
2023-05-13T21:03:25.931Z,14.18
2023-05-13T21:05:56.306Z,13.82
2023-05-13T21:08:26.344Z,14.70
2023-05-13T21:10:57.572Z,14.47
2023-05-13T21:13:28.672Z,14.67
2023-05-13T21:15:58.768Z,13.43
2023-05-13T21:18:31.897Z,13.10
2023-05-13T21:21:02.001Z,13.63
2023-05-13T21:23:33.563Z,14.60
2023-05-13T21:26:07.802Z,13.52
2023-05-13T21:28:38.021Z,13.53
2023-05-13T21:31:08.210Z,13.63
2023-05-13T21:33:40.952Z,14.13
2023-05-13T21:36:11.605Z,13.77
2023-05-13T21:38:41.780Z,14.00
2023-05-13T21:41:11.811Z,13.87
2023-05-13T21:43:42.060Z,15.40
2023-05-13T21:46:12.136Z,13.80
2023-05-13T21:48:44.859Z,14.33
2023-05-13T21:51:15.144Z,13.03
2023-05-13T21:53:46.260Z,15.67
2023-05-13T21:56:16.467Z,14.43
2023-05-13T21:58:46.876Z,13.80
2023-05-13T22:01:16.985Z,12.95
2023-05-13T23:12:25.167Z,12.17
2023-05-13T23:14:55.619Z,12.20
2023-05-13T23:17:25.803Z,12.27
2023-05-13T23:19:55.915Z,12.67
2023-05-13T23:22:26.070Z,12.47
2023-05-13T23:24:56.106Z,12.87
2023-05-13T23:27:32.237Z,11.80
2023-05-13T23:30:02.514Z,12.37
2023-05-13T23:32:32.554Z,12.93
2023-05-13T23:35:02.633Z,12.00
2023-05-13T23:37:32.694Z,13.00
2023-05-13T23:40:02.911Z,12.40
2023-05-13T23:42:36.153Z,12.50
2023-05-13T23:45:06.748Z,12.40
2023-05-13T23:47:36.805Z,12.13
2023-05-13T23:50:07.970Z,12.00
2023-05-13T23:52:38.613Z,13.00
2023-05-13T23:55:10.278Z,12.83
2023-05-13T23:57:42.997Z,13.40
